createdAt,value
2022-11-05T00:02:24.628Z,97898.80
2022-11-05T00:05:22.466Z,97907.62
2022-11-05T00:08:26.333Z,97920.77
2022-11-05T00:11:13.820Z,97923.17
2022-11-05T00:14:20.822Z,97929.05
2022-11-05T00:17:02.724Z,97934.59
2022-11-05T00:19:45.793Z,97942.34
2022-11-05T00:22:44.803Z,97942.52
2022-11-05T00:25:29.233Z,97946.66
2022-11-05T00:28:11.795Z,97946.48
2022-11-05T00:30:54.417Z,97951.17
2022-11-05T00:33:35.730Z,97954.80
2022-11-05T00:36:21.143Z,97961.02
2022-11-05T00:39:01.886Z,97962.56
2022-11-05T00:42:15.265Z,97964.63
2022-11-05T00:45:06.752Z,97973.08
2022-11-05T00:48:10.959Z,97970.12
2022-11-05T00:50:49.120Z,97974.09
2022-11-05T00:53:39.691Z,97974.09
2022-11-05T00:56:25.028Z,97973.23
2022-11-05T00:59:08.590Z,97979.60
2022-11-05T01:01:53.672Z,97988.05
2022-11-05T01:04:44.262Z,97991.17
2022-11-05T01:07:31.402Z,97996.51
2022-11-05T01:10:19.826Z,98005.84
2022-11-05T01:13:00.788Z,98010.83
2022-11-05T01:15:47.596Z,98014.27
2022-11-05T01:18:30.000Z,98006.15
2022-11-05T01:21:19.690Z,98007.56
2022-11-05T01:24:04.837Z,98009.97
2022-11-05T01:26:51.758Z,98009.44
2022-11-05T01:29:36.351Z,98020.49
2022-11-05T01:32:27.622Z,98026.89
2022-11-05T01:35:08.895Z,98029.16
2022-11-05T01:37:51.457Z,98033.31
2022-11-05T01:40:37.397Z,98038.66
2022-11-05T01:43:28.354Z,98036.76
2022-11-05T01:46:10.208Z,98045.22
2022-11-05T01:49:02.725Z,98050.91
2022-11-05T01:51:45.647Z,98044.70
2022-11-05T01:54:29.472Z,98042.80
2022-11-05T01:57:16.590Z,98038.48
2022-11-05T02:00:04.116Z,98041.62
2022-11-05T02:02:52.852Z,98048.70
2022-11-05T02:05:39.569Z,98049.58
2022-11-05T02:08:51.015Z,98054.38
2022-11-05T02:11:39.595Z,98049.88
2022-11-05T02:14:24.850Z,98053.00
2022-11-05T02:17:15.685Z,98061.81
2022-11-05T02:20:26.171Z,98063.02
2022-11-05T02:23:49.663Z,98072.48
2022-11-05T02:26:37.808Z,98085.27
2022-11-05T02:29:51.068Z,98096.48
2022-11-05T02:32:41.844Z,98097.35
2022-11-05T02:35:33.212Z,98098.88
2022-11-05T02:38:22.686Z,98096.08
2022-11-05T02:41:20.562Z,98102.10
2022-11-05T02:44:24.219Z,98104.55
2022-11-05T02:47:23.567Z,98098.88
2022-11-05T02:50:19.226Z,98101.48
2022-11-05T02:53:12.503Z,98110.09
2022-11-05T02:56:06.919Z,98109.39
2022-11-05T02:58:52.632Z,98114.39
2022-11-05T03:01:27.276Z,98123.87
2022-11-05T03:04:07.747Z,98129.90
2022-11-05T03:06:54.385Z,98132.30
2022-11-05T03:09:50.926Z,98138.71
2022-11-05T03:13:01.955Z,98143.58
2022-11-05T03:15:52.780Z,98144.63
2022-11-05T03:18:43.184Z,98148.42
2022-11-05T03:22:05.256Z,98149.63
2022-11-05T03:24:54.231Z,98155.84
2022-11-05T03:27:50.016Z,98170.02
2022-11-05T03:30:36.862Z,98174.38
2022-11-05T03:33:25.862Z,98176.98
2022-11-05T03:36:12.308Z,98182.31
2022-11-05T03:38:58.183Z,98189.55
2022-11-05T03:41:48.797Z,98195.77
2022-11-05T03:44:44.012Z,98205.96
2022-11-05T03:47:34.277Z,98214.11
2022-11-05T03:50:28.383Z,98228.11
2022-11-05T03:53:25.347Z,98233.44
2022-11-05T03:56:24.821Z,98233.44
2022-11-05T03:59:07.026Z,98236.23
2022-11-05T04:01:43.391Z,98236.77
2022-11-05T04:04:20.496Z,98240.77
2022-11-05T04:07:25.326Z,98246.66
2022-11-05T04:10:28.271Z,98254.39
2022-11-05T04:13:30.751Z,98257.97
2022-11-05T04:16:39.368Z,98258.51
2022-11-05T04:19:40.565Z,98268.20
2022-11-05T04:22:43.819Z,98265.45
2022-11-05T04:25:28.499Z,98259.58
2022-11-05T04:28:09.954Z,98258.16
2022-11-05T04:30:53.895Z,98254.73
2022-11-05T04:33:33.403Z,98257.52
2022-11-05T04:36:15.912Z,98258.89
2022-11-05T04:38:58.172Z,98259.73
2022-11-05T04:41:44.826Z,98266.66
2022-11-05T04:44:24.017Z,98278.42
2022-11-05T04:47:03.804Z,98283.05
2022-11-05T04:49:51.265Z,98288.32
2022-11-05T04:52:32.606Z,98288.99
2022-11-05T04:55:15.969Z,98290.41
2022-11-05T04:58:02.529Z,98287.31
2022-11-05T05:00:43.756Z,98292.33
2022-11-05T05:03:25.710Z,98296.16
2022-11-05T05:06:07.101Z,98297.78
2022-11-05T05:08:57.013Z,98303.79
2022-11-05T05:11:37.074Z,98305.96
2022-11-05T05:14:18.514Z,98304.56
2022-11-05T05:17:07.479Z,98305.54
2022-11-05T05:20:11.904Z,98305.54
2022-11-05T05:22:58.886Z,98309.73
2022-11-05T05:25:40.874Z,98315.10
2022-11-05T05:28:30.444Z,98308.34
2022-11-05T05:31:20.548Z,98309.17
2022-11-05T05:33:59.989Z,98320.81
2022-11-05T05:36:42.500Z,98320.45
2022-11-05T05:39:19.507Z,98316.42
2022-11-05T05:42:02.443Z,98315.33
2022-11-05T05:44:47.329Z,98320.66
2022-11-05T05:47:33.683Z,98329.27
2022-11-05T05:50:15.371Z,98339.98
2022-11-05T05:53:01.570Z,98351.77
2022-11-05T05:55:56.434Z,98352.98
2022-11-05T05:58:42.423Z,98350.57
2022-11-05T06:01:25.821Z,98351.80
2022-11-05T06:04:09.125Z,98354.94
2022-11-05T06:06:52.801Z,98359.10
2022-11-05T06:09:35.458Z,98365.52
2022-11-05T06:12:16.848Z,98371.96
2022-11-05T06:15:06.247Z,98382.20
2022-11-05T06:17:51.368Z,98389.98
2022-11-05T06:20:42.524Z,98393.95
2022-11-05T06:23:30.575Z,98397.22
2022-11-05T06:26:13.325Z,98400.18
2022-11-05T06:28:59.116Z,98403.64
2022-11-05T06:31:43.753Z,98403.14
2022-11-05T06:34:26.174Z,98407.54
2022-11-05T06:37:07.378Z,98414.08
2022-11-05T06:39:48.614Z,98416.48
2022-11-05T06:42:30.586Z,98421.69
2022-11-05T06:45:13.706Z,98424.80
2022-11-05T06:48:02.077Z,98430.36
2022-11-05T06:50:45.950Z,98436.29
2022-11-05T06:53:25.323Z,98436.33
2022-11-05T06:56:10.200Z,98439.64
2022-11-05T06:58:52.023Z,98444.15
2022-11-05T07:01:35.726Z,98444.88
2022-11-05T07:04:19.023Z,98449.19
2022-11-05T07:06:59.838Z,98453.69
2022-11-05T07:09:44.281Z,98455.79
2022-11-05T07:12:26.468Z,98452.02
2022-11-05T07:15:17.368Z,98458.82
2022-11-05T07:18:03.229Z,98466.61
2022-11-05T07:20:47.726Z,98471.47
2022-11-05T07:23:27.723Z,98475.45
2022-11-05T07:26:16.670Z,98481.95
2022-11-05T07:28:56.563Z,98490.45
2022-11-05T07:31:46.186Z,98501.67
2022-11-05T07:34:21.648Z,98507.52
2022-11-05T07:37:04.000Z,98514.28
2022-11-05T07:39:43.045Z,98519.65
2022-11-05T07:42:31.672Z,98521.55
2022-11-05T07:45:11.023Z,98521.80
2022-11-05T07:48:04.239Z,98519.62
2022-11-05T07:50:45.090Z,98524.28
2022-11-05T07:53:28.323Z,98532.23
2022-11-05T07:56:07.887Z,98537.90
2022-11-05T07:58:49.500Z,98548.81
2022-11-05T08:01:32.050Z,98558.20
2022-11-05T08:04:17.691Z,98559.80
2022-11-05T08:06:58.444Z,98556.19
2022-11-05T08:09:49.888Z,98556.07
2022-11-05T08:12:30.081Z,98556.30
2022-11-05T08:15:16.157Z,98563.05
2022-11-05T08:18:19.492Z,98568.05
2022-11-05T08:20:58.830Z,98570.62
2022-11-05T08:23:42.450Z,98570.66
2022-11-05T08:26:30.366Z,98573.33
2022-11-05T08:29:12.461Z,98582.20
2022-11-05T08:31:55.681Z,98587.65
2022-11-05T08:34:35.877Z,98596.52
2022-11-05T08:37:19.963Z,98601.05
2022-11-05T08:40:03.092Z,98608.85
2022-11-05T08:42:44.551Z,98617.49
2022-11-05T08:45:30.547Z,98620.14
2022-11-05T08:48:13.497Z,98624.18
2022-11-05T08:50:50.649Z,98627.64
2022-11-05T08:53:27.933Z,98630.04
2022-11-05T08:56:03.432Z,98630.93
2022-11-05T08:58:51.861Z,98631.14
2022-11-05T09:01:39.380Z,98632.37
2022-11-05T09:04:22.806Z,98633.73
2022-11-05T09:07:01.070Z,98635.83
2022-11-05T09:10:00.190Z,98639.69
2022-11-05T09:12:49.665Z,98645.41
2022-11-05T09:15:51.535Z,98649.61
2022-11-05T09:18:48.285Z,98651.90
2022-11-05T09:21:39.783Z,98658.39
2022-11-05T09:24:43.266Z,98664.19
2022-11-05T09:27:57.401Z,98667.73
2022-11-05T09:31:19.619Z,98668.23
2022-11-05T09:34:12.515Z,98669.83
2022-11-05T09:37:04.648Z,98672.77
2022-11-05T09:39:53.983Z,98672.98
2022-11-05T09:43:00.218Z,98678.40
2022-11-05T09:46:03.235Z,98677.23
2022-11-05T09:48:52.996Z,98677.48
2022-11-05T09:52:15.289Z,98680.20
2022-11-05T09:55:04.458Z,98685.43
2022-11-05T09:58:29.001Z,98686.98
2022-11-05T10:00:58.849Z,98693.08
2022-11-05T10:03:30.301Z,98698.29
2022-11-05T10:06:11.496Z,98699.88
2022-11-05T10:08:47.185Z,98701.62
2022-11-05T10:11:30.677Z,98704.56
2022-11-05T10:14:07.122Z,98712.19
2022-11-05T10:16:42.347Z,98709.05
2022-11-05T10:19:24.789Z,98710.94
2022-11-05T10:22:19.975Z,98707.41
2022-11-05T10:24:50.987Z,98710.77
2022-11-05T10:27:34.918Z,98711.58
2022-11-05T10:30:04.700Z,98707.20
2022-11-05T10:32:35.834Z,98709.29
2022-11-05T10:35:08.883Z,98711.39
2022-11-05T10:37:40.821Z,98709.66
2022-11-05T10:40:45.902Z,98709.19
2022-11-05T10:43:33.354Z,98711.02
2022-11-05T10:46:32.897Z,98711.27
2022-11-05T10:49:33.047Z,98709.58
2022-11-05T10:52:22.336Z,98710.33
2022-11-05T10:54:54.116Z,98714.35
2022-11-05T10:57:33.012Z,98718.20
2022-11-05T11:00:17.406Z,98719.10
2022-11-05T11:02:49.760Z,98716.68
2022-11-05T11:05:22.973Z,98719.15
2022-11-05T11:08:12.659Z,98721.80
2022-11-05T11:10:52.064Z,98723.57
2022-11-05T11:13:30.134Z,98731.06
2022-11-05T11:16:29.484Z,98732.64
2022-11-05T11:19:01.282Z,98733.14
2022-11-05T11:21:32.722Z,98733.14
2022-11-05T11:24:04.109Z,98732.80
2022-11-05T11:26:37.660Z,98737.83
2022-11-05T11:29:20.460Z,98737.45
2022-11-05T11:31:49.167Z,98738.47
2022-11-05T11:34:27.884Z,98737.27
2022-11-05T11:37:07.492Z,98740.58
2022-11-05T11:39:44.560Z,98746.34
2022-11-05T11:42:27.910Z,98747.91
2022-11-05T11:44:59.527Z,98750.52
2022-11-05T11:47:30.569Z,98754.15
2022-11-05T11:50:02.600Z,98752.77
2022-11-05T11:52:37.319Z,98757.27
2022-11-05T11:55:12.089Z,98756.40
2022-11-05T11:58:05.401Z,98759.70
2022-11-05T12:00:46.960Z,98762.66
2022-11-05T12:03:36.163Z,98764.77
2022-11-05T12:06:13.746Z,98764.02
2022-11-05T12:08:58.127Z,98764.88
2022-11-05T12:11:40.223Z,98770.43
2022-11-05T12:14:46.627Z,98773.54
2022-11-05T12:17:27.463Z,98776.13
2022-11-05T12:20:15.316Z,98780.82
2022-11-05T12:22:53.029Z,98779.24
2022-11-05T12:25:40.702Z,98780.14
2022-11-05T12:28:17.945Z,98778.77
2022-11-05T12:31:06.072Z,98781.05
2022-11-05T12:33:52.879Z,98784.52
2022-11-05T12:36:33.313Z,98788.66
2022-11-05T12:39:20.835Z,98793.84
2022-11-05T12:42:02.827Z,98797.97
2022-11-05T12:44:50.807Z,98802.31
2022-11-05T12:47:52.101Z,98806.16
2022-11-05T12:50:26.673Z,98805.30
2022-11-05T12:53:33.298Z,98803.23
2022-11-05T12:56:06.713Z,98804.09
2022-11-05T12:58:40.528Z,98803.70
2022-11-05T13:01:15.205Z,98804.17
2022-11-05T13:04:09.145Z,98800.19
2022-11-05T13:06:41.303Z,98796.73
2022-11-05T13:09:19.148Z,98795.88
2022-11-05T13:11:50.023Z,98794.48
2022-11-05T13:14:24.183Z,98794.30
2022-11-05T13:17:01.670Z,98795.32
2022-11-05T13:19:42.210Z,98801.52
2022-11-05T13:22:44.752Z,98806.53
2022-11-05T13:25:22.749Z,98806.15
2022-11-05T13:27:59.705Z,98809.04
2022-11-05T13:30:38.880Z,98810.92
2022-11-05T13:33:12.298Z,98815.42
2022-11-05T13:36:15.562Z,98818.02
2022-11-05T13:39:00.180Z,98821.51
2022-11-05T13:41:40.278Z,98824.63
2022-11-05T13:44:37.460Z,98827.08
2022-11-05T13:47:16.284Z,98831.39
2022-11-05T13:49:57.315Z,98831.70
2022-11-05T13:52:45.082Z,98837.73
2022-11-05T13:55:35.356Z,98837.83
2022-11-05T13:58:04.578Z,98843.98
2022-11-05T14:00:39.242Z,98844.77
2022-11-05T14:03:18.849Z,98845.81
2022-11-05T14:05:58.155Z,98847.70
2022-11-05T14:08:29.210Z,98849.75
2022-11-05T14:11:03.142Z,98849.91
2022-11-05T14:13:32.400Z,98850.57
2022-11-05T14:16:10.363Z,98855.25
2022-11-05T14:18:41.267Z,98856.33
2022-11-05T14:21:28.290Z,98860.35
2022-11-05T14:24:19.801Z,98863.32
2022-11-05T14:27:00.741Z,98867.08
2022-11-05T14:29:44.620Z,98871.52
2022-11-05T14:32:22.163Z,98874.95
2022-11-05T14:35:01.419Z,98877.34
2022-11-05T14:37:56.206Z,98877.48
2022-11-05T14:40:42.617Z,98882.63
2022-11-05T14:43:14.389Z,98885.20
2022-11-05T14:46:06.562Z,98885.02
2022-11-05T14:48:53.086Z,98886.70
2022-11-05T14:51:38.396Z,98893.27
2022-11-05T14:54:18.961Z,98886.60
2022-11-05T14:56:56.321Z,98887.73
2022-11-05T14:59:25.277Z,98890.08
2022-11-05T15:02:04.353Z,98890.66
2022-11-05T15:04:45.882Z,98903.58
2022-11-05T15:07:33.927Z,98908.55
2022-11-05T15:10:10.661Z,98903.16
2022-11-05T15:12:48.118Z,98904.66
2022-11-05T15:15:24.411Z,98909.45
2022-11-05T15:18:06.905Z,98910.27
2022-11-05T15:20:42.315Z,98914.67
2022-11-05T15:23:18.364Z,98916.30
2022-11-05T15:26:02.046Z,98917.77
2022-11-05T15:28:54.565Z,98920.13
2022-11-05T15:31:36.536Z,98920.81
2022-11-05T15:34:20.098Z,98920.80
2022-11-05T15:36:53.420Z,98923.02
2022-11-05T15:39:30.520Z,98927.64
2022-11-05T15:42:05.054Z,98928.63
2022-11-05T15:44:39.659Z,98924.73
2022-11-05T15:47:23.387Z,98931.80
2022-11-05T15:49:57.713Z,98933.81
2022-11-05T15:52:37.387Z,98935.67
2022-11-05T15:55:26.760Z,98936.13
2022-11-05T15:58:07.203Z,98940.38
2022-11-05T16:00:37.064Z,98940.34
2022-11-05T16:03:15.578Z,98942.90
2022-11-05T16:05:48.154Z,98944.27
2022-11-05T16:08:21.338Z,98949.41
2022-11-05T16:10:53.568Z,98951.13
2022-11-05T16:13:38.948Z,98953.73
2022-11-05T16:16:31.682Z,98956.04
2022-11-05T16:19:00.795Z,98952.91
2022-11-05T16:21:29.638Z,98957.34
2022-11-05T16:23:59.966Z,98960.76
2022-11-05T16:27:01.691Z,98966.40
2022-11-05T16:29:35.218Z,98967.91
2022-11-05T16:32:14.846Z,98968.45
2022-11-05T16:34:49.671Z,98973.15
2022-11-05T16:37:21.542Z,98974.45
2022-11-05T16:39:51.327Z,98976.10
2022-11-05T16:42:38.133Z,98982.46
2022-11-05T16:45:11.506Z,98983.57
2022-11-05T16:47:40.090Z,98982.16
2022-11-05T16:50:24.436Z,98980.34
2022-11-05T16:52:53.234Z,98987.09
2022-11-05T16:55:22.384Z,98992.66
2022-11-05T16:57:55.669Z,98997.16
2022-11-05T17:00:25.298Z,99002.11
2022-11-05T17:02:54.048Z,99008.40
2022-11-05T17:05:25.169Z,99008.51
2022-11-05T17:07:55.430Z,99007.90
2022-11-05T17:10:25.886Z,99011.41
2022-11-05T17:12:54.686Z,99009.64
2022-11-05T17:15:27.721Z,99012.04
2022-11-05T17:17:57.041Z,99015.67
2022-11-05T17:20:39.787Z,99021.05
2022-11-05T17:23:15.051Z,99022.10
2022-11-05T17:25:47.123Z,99025.75
2022-11-05T17:28:17.015Z,99025.35
2022-11-05T17:30:52.361Z,99023.41
2022-11-05T17:33:23.446Z,99024.87
2022-11-05T17:35:52.348Z,99024.39
2022-11-05T17:38:22.821Z,99027.01
2022-11-05T17:40:52.331Z,99028.80
2022-11-05T17:43:21.234Z,99030.53
2022-11-05T17:45:52.648Z,99035.29
2022-11-05T17:48:22.074Z,99033.63
2022-11-05T17:50:51.381Z,99034.61
2022-11-05T17:53:20.664Z,99039.64
2022-11-05T17:55:49.811Z,99040.54
2022-11-05T17:58:18.386Z,99041.00
2022-11-05T18:00:47.956Z,99043.27
2022-11-05T18:03:29.121Z,99042.45
2022-11-05T18:06:20.250Z,99046.55
2022-11-05T18:09:09.935Z,99052.61
2022-11-05T18:11:57.418Z,99057.45
2022-11-05T18:14:43.085Z,99057.11
2022-11-05T18:17:31.144Z,99058.79
2022-11-05T18:20:21.908Z,99056.61
2022-11-05T18:23:07.650Z,99054.99
2022-11-05T18:26:07.514Z,99057.46
2022-11-05T18:28:59.430Z,99057.14
2022-11-05T18:31:54.791Z,99060.42
2022-11-05T18:34:45.793Z,99063.34
2022-11-05T18:37:37.213Z,99066.03
2022-11-05T18:43:21.301Z,99067.80
2022-11-05T18:45:56.738Z,99075.39
2022-11-05T18:48:25.871Z,99079.70
2022-11-05T18:50:57.770Z,99086.42
2022-11-05T18:53:30.874Z,99088.71
2022-11-05T18:55:59.436Z,99093.24
2022-11-05T18:58:27.986Z,99095.27
2022-11-05T19:00:59.279Z,99101.72
2022-11-05T19:03:31.474Z,99107.37
2022-11-05T19:06:04.310Z,99107.70
2022-11-05T19:08:33.885Z,99111.17
2022-11-05T19:11:13.951Z,99116.30
2022-11-05T19:13:43.722Z,99118.40
2022-11-05T19:16:18.153Z,99121.25
2022-11-05T19:18:47.327Z,99121.88
2022-11-05T19:21:24.698Z,99122.38
2022-11-05T19:23:54.140Z,99127.55
2022-11-05T19:26:28.621Z,99132.82
2022-11-05T19:29:00.347Z,99133.39
2022-11-05T19:31:31.057Z,99132.90
2022-11-05T19:34:01.330Z,99133.22
2022-11-05T19:36:30.541Z,99130.38
2022-11-05T19:39:05.158Z,99131.63
2022-11-05T19:41:33.797Z,99133.33
2022-11-05T19:48:00.327Z,99135.44
2022-11-05T19:50:29.204Z,99132.00
2022-11-05T19:52:57.814Z,99130.14
2022-11-05T19:55:26.654Z,99134.64
2022-11-05T19:57:55.663Z,99140.60
2022-11-05T20:00:24.261Z,99137.86
2022-11-05T20:02:53.159Z,99140.55
2022-11-05T20:05:22.393Z,99141.33
2022-11-05T20:07:53.031Z,99146.16
2022-11-05T20:10:22.156Z,99151.55
2022-11-05T20:12:51.502Z,99152.44
2022-11-05T20:15:20.243Z,99152.24
2022-11-05T20:17:53.044Z,99149.44
2022-11-05T20:20:21.985Z,99153.06
2022-11-05T20:22:52.736Z,99153.33
2022-11-05T20:25:21.767Z,99154.20
2022-11-05T20:27:51.150Z,99154.46
2022-11-05T20:30:20.835Z,99154.40
2022-11-05T20:32:56.897Z,99156.13
2022-11-05T20:35:25.758Z,99155.78
2022-11-05T20:37:54.678Z,99159.48
2022-11-05T20:40:23.258Z,99158.28
2022-11-05T20:42:52.500Z,99161.03
2022-11-05T20:45:21.216Z,99163.92
2022-11-05T20:47:50.150Z,99165.41
2022-11-05T20:50:18.982Z,99167.46
2022-11-05T20:52:47.848Z,99167.80
2022-11-05T20:55:16.473Z,99165.72
2022-11-05T20:57:45.375Z,99161.41
2022-11-05T21:00:14.872Z,99162.77
2022-11-05T21:02:43.597Z,99163.23
2022-11-05T21:05:12.596Z,99164.29
2022-11-05T21:07:41.513Z,99163.77
2022-11-05T21:10:10.159Z,99161.66
2022-11-05T21:12:40.541Z,99162.76
2022-11-05T21:15:09.944Z,99162.80
2022-11-05T21:17:38.581Z,99160.45
2022-11-05T21:20:08.149Z,99155.79
2022-11-05T21:22:36.760Z,99154.95
2022-11-05T21:25:05.710Z,99155.80
2022-11-05T21:27:34.770Z,99159.25
2022-11-05T21:30:04.213Z,99163.98
2022-11-05T21:32:32.849Z,99164.10
2022-11-05T21:35:02.349Z,99162.52
2022-11-05T21:37:31.931Z,99163.30
2022-11-05T21:40:00.663Z,99168.14
2022-11-05T21:42:30.263Z,99166.50
2022-11-05T21:45:00.505Z,99164.04
2022-11-05T21:47:29.720Z,99163.73
2022-11-05T21:49:58.728Z,99163.62
2022-11-05T21:52:45.969Z,99159.22
2022-11-05T21:55:33.860Z,99160.23
2022-11-05T21:58:28.483Z,99158.30
2022-11-05T22:00:57.583Z,99157.35
2022-11-05T22:03:26.590Z,99159.26
2022-11-05T22:05:57.749Z,99159.91
2022-11-05T22:08:27.604Z,99159.94
2022-11-05T22:10:56.467Z,99160.73
2022-11-05T22:13:25.388Z,99166.05
2022-11-05T22:15:57.701Z,99168.55
2022-11-05T22:18:26.531Z,99168.57
2022-11-05T22:20:55.198Z,99171.48
2022-11-05T22:23:23.769Z,99173.33
2022-11-05T22:26:00.443Z,99169.59
2022-11-05T22:28:29.637Z,99170.77
2022-11-05T22:30:58.387Z,99169.58
2022-11-05T22:33:27.056Z,99174.24
2022-11-05T22:35:56.235Z,99175.35
2022-11-05T22:38:24.918Z,99171.80
2022-11-05T22:40:53.875Z,99169.97
2022-11-05T22:43:23.112Z,99173.03
2022-11-05T22:45:51.849Z,99175.34
2022-11-05T22:48:20.597Z,99165.36
2022-11-05T22:50:49.858Z,99167.17
2022-11-05T22:53:18.332Z,99162.86
2022-11-05T22:55:46.835Z,99166.46
2022-11-05T22:58:16.084Z,99163.52
2022-11-05T23:00:44.920Z,99166.41
2022-11-05T23:03:13.731Z,99165.70
2022-11-05T23:05:42.494Z,99171.12
2022-11-05T23:08:29.754Z,99176.46
2022-11-05T23:11:17.681Z,99176.73
2022-11-05T23:13:46.259Z,99177.64
2022-11-05T23:16:34.106Z,99180.28
2022-11-05T23:19:21.512Z,99177.71
2022-11-05T23:22:09.775Z,99180.27
2022-11-05T23:24:38.468Z,99181.17
2022-11-05T23:27:07.848Z,99180.67
2022-11-05T23:29:36.660Z,99183.85
2022-11-05T23:32:24.118Z,99184.56
2022-11-05T23:34:54.813Z,99184.98
2022-11-05T23:37:47.431Z,99186.85
2022-11-05T23:40:28.611Z,99187.31
2022-11-05T23:43:16.629Z,99186.77
2022-11-05T23:45:58.023Z,99186.02
2022-11-05T23:48:37.700Z,99183.19
2022-11-05T23:51:10.636Z,99183.28
2022-11-05T23:53:41.679Z,99191.84
2022-11-05T23:56:13.496Z,99192.60
2022-11-05T23:58:42.924Z,99187.94
